Latest Coastal Weather Observations for Ngayawili (Elcho Island)

IDD60701

Issued at 12:51 pm CST Thursday 27 April 2017 (issued every 10 minutes, with the page automatically refreshed every 10 minutes)

About coastal observations | Map of coastal stations | Coastal observations for NT | Marine services | Other Formats
Station Details ID: 014517 Name: NGAYAWILI Lat: -12.00 Lon: 135.57 Height: 8.1 m
Data from the previous 72 hours. | See also: Recent months at Ngayawili (Elcho Island)
Date/Time
CST
Temp
°C
Wind Pressure Rain since
9am
mm
Weather Cloud Vis
km
Sea
Height
m
Swell
Dir  Spd
kts
Gust
kts
hPa Trend Height
m
Period
s
Dir
27/12:30pm 23.8 ENE 6 9 1012.2 - 37.8 - - - - - - -
27/12:00pm 23.2 E 9 18 1013.2 - 37.4 Rain - - - - - -
27/11:30am 24.1 ENE 9 15 1013.8 - 28.0 - - - - - - -
27/11:00am 24.4 E 8 13 1013.8 - 25.6 - - - - - - -
27/10:30am 24.4 NE 11 22 1014.4 - 5.6 - - - - - - -
27/10:00am 25.7 ENE 9 17 1014.1 - 0.0 - - - - - - -
27/09:30am 28.2 E 7 11 1013.4 - 0.0 - - - - - - -
27/09:00am 28.0 ESE 6 13 1013.0 - 37.8 - - - - - - -
27/08:30am 27.9 ESE 6 9 1012.2 - 37.8 - - - - - - -
27/08:00am 26.7 ESE 4 8 1012.0 - 37.8 - - - - - - -
27/07:30am 25.8 CALM 0 0 1011.6 - 37.8 - - - - - - -
27/07:00am 25.4 CALM 0 0 1011.6 - 37.8 - - - - - - -
27/06:30am 25.2 SE 1 5 1011.2 - 37.8 - - - - - - -
27/06:00am 25.1 CALM 0 4 1010.4 - 37.8 - - - - - - -
27/05:30am 25.1 ESE 1 4 1010.1 - 37.8 - - - - - - -
27/05:00am 25.1 SE 3 5 1009.4 - 37.8 - - - - - - -
27/04:30am 25.2 SE 5 7 1009.3 - 37.8 - - - - - - -
27/04:00am 25.2 ESE 5 8 1009.3 - 37.8 - - - - - - -
27/03:30am 24.9 ESE 4 6 1009.1 - 37.8 - - - - - - -
27/03:00am 24.9 ESE 5 8 1009.1 - 37.8 - - - - - - -
27/02:30am 25.1 ESE 7 11 1009.2 - 37.8 - - - - - - -
27/02:00am 25.1 ESE 6 11 1009.8 - 37.8 - - - - - - -
27/01:30am 25.3 ESE 6 9 1010.4 - 37.8 - - - - - - -
27/01:00am 25.5 E 8 14 1010.7 - 37.8 - - - - - - -
27/12:30am 25.5 E 9 16 1010.8 - 37.8 - - - - - - -
27/12:00am 25.5 E 8 15 1011.2 - 37.8 - - - - - - -
 
Date/Time
CST
Temp
°C
Wind Pressure Rain since
9am
mm
Weather Cloud Vis
km
Sea
Height
m
Swell
Dir  Spd
kts
Gust
kts
hPa Trend Height
m
Period
s
Dir
26/11:30pm 25.1 E 7 13 1011.7 - 37.8 - - - - - - -
26/11:00pm 24.7 ESE 7 11 1011.7 - 37.8 - - - - - - -
26/10:30pm 24.5 ESE 7 11 1011.9 - 37.8 - - - - - - -
26/10:00pm 24.3 ESE 8 14 1012.2 - 37.8 - - - - - - -
26/09:30pm 24.2 SE 8 15 1012.2 - 37.8 - - - - - - -
26/09:00pm 24.3 SE 10 13 1012.1 - 37.8 - - - - - - -
26/08:30pm 24.4 ESE 9 14 1012.0 - 37.8 - - - - - - -
26/08:00pm 24.3 SE 11 17 1011.3 - 37.8 - - - - - - -
26/07:30pm 24.2 SE 11 19 1010.8 - 37.8 - - - - - - -
26/07:00pm 23.7 SE 10 16 1011.0 - 37.8 - - - - - - -
26/06:30pm 23.3 SE 13 19 1010.7 - 37.8 - - - - - - -
26/06:00pm 23.1 SE 12 19 1010.5 - 37.8 - - - - - - -
26/05:30pm 23.1 SE 12 19 1010.2 - 37.8 - - - - - - -
26/05:00pm 23.2 SE 13 21 1010.1 - 37.8 - - - - - - -
26/04:30pm 23.0 SSE 14 21 1009.7 - 37.8 - - - - - - -
26/04:12pm 23.4 SSE 15 27 1009.3 - 37.8 - - - - - - -
26/04:00pm 23.9 SSE 15 22 1009.3 - 37.8 - - - - - - -
26/03:30pm 24.5 SSE 12 22 1009.0 - 37.6 - - - - - - -
26/03:00pm 24.3 SSE 8 11 1009.3 - 36.8 Rain - - - - - -
26/02:30pm 24.6 SE 5 8 1010.0 - 34.8 - - - - - - -
26/02:00pm 24.5 ESE 4 7 1009.9 - 32.6 - - - - - - -
26/01:30pm 24.0 CALM 0 0 1010.4 - 30.8 - - - - - - -
26/01:00pm 24.1 ENE 7 11 1010.8 - 25.0 - - - - - - -
26/12:30pm 26.8 ESE 6 11 1010.4 - 1.8 - - - - - - -
26/12:00pm 27.5 SE 7 10 1010.9 - 1.4 - - - - - - -
26/11:30am 27.9 E 6 9 1010.9 - 1.4 - - - - - - -
26/11:00am 27.2 ESE 5 8 1011.5 - 1.4 - - - - - - -
26/10:30am 26.4 ESE 4 7 1011.9 - 1.4 - - - - - - -
26/10:00am 25.6 ESE 6 8 1011.9 - 1.4 - - - - - - -
26/09:30am 25.0 ESE 6 11 1011.9 - 1.0 - - - - - - -
26/09:00am 24.8 E 7 13 1011.7 - 65.0 Rain - - - - - -
26/08:30am 24.9 E 2 6 1011.2 - 57.2 - - - - - - -
26/08:00am 24.5 SE 4 7 1010.8 - 56.4 - - - - - - -
26/07:30am 23.9 SE 3 6 1010.6 - 56.2 - - - - - - -
26/07:00am 23.7 ESE 4 5 1010.1 - 55.8 - - - - - - -
26/06:30am 23.8 SE 6 9 1010.3 - 54.6 - - - - - - -
26/06:00am 23.4 ESE 7 10 1009.9 - 52.8 Rain - - - - - -
26/05:30am 23.5 ENE 7 11 1009.8 - 36.6 - - - - - - -
26/05:00am 24.8 CALM 0 0 1009.1 - 27.8 - - - - - - -
26/04:30am 24.8 CALM 0 0 1009.2 - 27.8 - - - - - - -
26/04:00am 24.8 CALM 0 0 1009.0 - 27.8 - - - - - - -
26/03:30am 24.8 CALM 0 0 1009.1 - 27.8 - - - - - - -
26/03:00am 25.2 ESE 5 6 1009.3 - 27.8 Recent precip. - - - - - -
26/02:30am 25.2 ESE 5 7 1009.4 - 27.6 - - - - - - -
26/02:00am 25.1 SE 4 6 1009.7 - 27.6 - - - - - - -
26/01:30am 25.2 SE 5 7 1010.1 - 27.6 - - - - - - -
26/01:00am 25.5 SE 6 8 1010.4 - 27.6 - - - - - - -
26/12:30am 25.5 ESE 5 8 1010.4 - 27.6 - - - - - - -
26/12:00am 25.4 ESE 5 11 1010.5 - 27.6 - - - - - - -
 
Date/Time
CST
Temp
°C
Wind Pressure Rain since
9am
mm
Weather Cloud Vis
km
Sea
Height
m
Swell
Dir  Spd
kts
Gust
kts
hPa Trend Height
m
Period
s
Dir
25/11:30pm 25.5 ESE 6 9 1010.5 - 27.6 - - - - - - -
25/11:00pm 25.7 ESE 6 10 1010.6 - 27.6 - - - - - - -
25/10:30pm 25.5 ENE 4 7 1010.6 - 27.6 - - - - - - -
25/10:00pm 25.3 ESE 4 7 1010.8 - 27.6 - - - - - - -
25/09:30pm 25.2 SE 5 9 1010.7 - 27.6 - - - - - - -
25/09:00pm 25.0 SE 5 10 1010.3 - 27.6 - - - - - - -
25/08:30pm 24.7 SE 6 11 1009.6 - 27.6 - - - - - - -
25/08:00pm 24.7 SE 8 13 1009.1 - 27.6 - - - - - - -
25/07:30pm 24.8 SE 7 11 1009.0 - 27.6 - - - - - - -
25/07:00pm 24.9 SE 9 13 1009.0 - 27.4 - - - - - - -
25/06:30pm 24.8 SE 9 13 1009.1 - 27.2 - - - - - - -
25/06:00pm 24.6 SE 6 10 1009.2 - 27.0 Rain - - - - - -
25/05:30pm 24.7 ESE 9 14 1008.9 - 26.4 - - - - - - -
25/05:00pm 24.5 ESE 7 11 1008.7 - 25.6 - - - - - - -
25/04:30pm 24.4 ESE 7 12 1009.0 - 24.8 - - - - - - -
25/04:00pm 24.3 ESE 7 13 1008.7 - 24.0 - - - - - - -
25/03:30pm 24.4 E 8 14 1008.9 - 21.2 - - - - - - -
25/03:00pm 24.6 E 8 15 1009.1 - 18.0 Rain - - - - - -
25/02:30pm 24.6 E 8 13 1009.6 - 16.8 - - - - - - -
25/02:00pm 24.5 ESE 5 8 1009.9 - 15.0 - - - - - - -
25/01:30pm 24.6 ENE 5 11 1010.3 - 13.4 - - - - - - -
25/01:00pm 24.7 ENE 6 10 1010.9 - 11.6 - - - - - - -
25/12:30pm 24.6 NE 5 10 1011.3 - 10.0 - - - - - - -
25/12:00pm 24.6 ENE 5 8 1011.7 - 8.8 Rain - - - - - -
25/11:30am 24.7 ENE 5 8 1012.3 - 6.8 - - - - - - -
25/11:00am 24.9 ENE 6 10 1012.9 - 5.6 - - - - - - -
25/10:30am 25.0 ENE 5 8 1012.9 - 4.4 - - - - - - -
25/10:00am 25.2 ENE 4 8 1013.0 - 4.2 - - - - - - -
25/09:30am 25.1 E 6 11 1012.9 - 4.0 - - - - - - -
25/09:00am 25.3 ENE 8 14 1012.5 - 1.2 Recent precip. - - - - - -
25/08:30am 25.3 SSE 1 4 1011.6 - 1.0 - - - - - - -
25/08:00am 25.2 SSE 1 5 1011.4 - 1.0 - - - - - - -
25/07:30am 24.9 CALM 0 0 1011.4 - 1.0 - - - - - - -
25/07:00am 24.9 CALM 0 0 1010.9 - 1.0 - - - - - - -
25/06:30am 25.0 CALM 0 0 1010.2 - 1.0 - - - - - - -
25/06:00am 25.0 SE 3 4 1009.7 - 1.0 - - - - - - -
25/05:30am 25.0 SSE 4 5 1009.4 - 1.0 - - - - - - -
25/05:00am 25.0 SSE 4 5 1009.2 - 1.0 - - - - - - -
25/04:30am 25.0 SE 3 5 1009.4 - 1.0 - - - - - - -
25/04:00am 24.9 SSE 5 7 1009.1 - 1.0 - - - - - - -
25/03:30am 24.8 SE 3 5 1009.2 - 1.0 - - - - - - -
25/03:00am 24.9 SSE 5 7 1008.8 - 1.0 - - - - - - -
25/02:30am 25.0 SSE 5 7 1009.0 - 1.0 - - - - - - -
25/02:00am 25.1 SSE 5 7 1009.2 - 1.0 - - - - - - -
25/01:30am 25.1 SSE 5 7 1009.6 - 1.0 - - - - - - -
25/01:00am 25.2 SSE 5 9 1010.1 - 1.0 - - - - - - -
25/12:30am 25.3 SSE 6 9 1010.1 - 1.0 - - - - - - -
25/12:00am 25.4 SSE 5 8 1010.5 - 1.0 - - - - - - -
 
Date/Time
CST
Temp
°C
Wind Pressure Rain since
9am
mm
Weather Cloud Vis
km
Sea
Height
m
Swell
Dir  Spd
kts
Gust
kts
hPa Trend Height
m
Period
s
Dir
24/11:30pm 25.6 SSE 5 7 1010.9 - 1.0 - - - - - - -
24/11:00pm 25.7 SSE 4 6 1011.3 - 1.0 - - - - - - -
24/10:30pm 25.7 SSE 4 6 1011.6 - 1.0 - - - - - - -
24/10:00pm 25.7 SSE 5 7 1011.8 - 1.0 - - - - - - -
24/09:30pm 25.7 CALM 0 0 1012.2 - 1.0 - - - - - - -
24/09:00pm 25.9 SSE 1 4 1012.2 - 1.0 - - - - - - -
24/08:30pm 25.8 SE 4 6 1012.0 - 1.0 - - - - - - -
24/08:00pm 25.8 SE 4 7 1011.4 - 1.0 - - - - - - -
24/07:30pm 25.9 SSE 7 9 1010.8 - 1.0 - - - - - - -
24/07:00pm 26.1 SSE 5 7 1010.6 - 1.0 - - - - - - -
24/06:30pm 26.2 SE 4 6 1010.4 - 1.0 - - - - - - -
24/06:00pm 26.4 SSE 5 9 1010.0 - 1.0 - - - - - - -
24/05:30pm 26.7 SSE 8 12 1009.8 - 1.0 - - - - - - -
24/05:00pm 26.9 SSE 6 11 1009.5 - 1.0 - - - - - - -
24/04:30pm 27.6 SE 9 14 1009.1 - 1.0 - - - - - - -
24/04:00pm 28.3 SE 7 12 1009.0 - 1.0 - - - - - - -
24/03:30pm 27.9 SE 8 13 1009.1 - 1.0 - - - - - - -
24/03:00pm 27.3 ESE 7 13 1009.2 - 0.8 - - - - - - -
24/02:30pm 26.4 ESE 6 11 1009.4 - 0.8 - - - - - - -
24/02:00pm 25.3 E 5 8 1009.9 - 0.8 - - - - - - -
24/01:30pm 25.2 E 13 21 1010.3 - 0.6 - - - - - - -
24/01:17pm 27.3 E 11 27 1010.3 - 0.2 - - - - - - -
24/01:16pm 28.0 E 11 27 1010.2 - 0.2 - - - - - - -
24/01:00pm 30.2 E 7 14 1010.0 - 0.2 - - - - - - -

Other Formats:

Comma delimited format used in spreadsheet applications
http://www.bom.gov.au/fwo/IDD60701/IDD60701.95146.axf

JavaScript Object Notation format (JSON) in row-major order
http://www.bom.gov.au/fwo/IDD60701/IDD60701.95146.json